Latest Weather Observations for Gayndah

IDQ60801

Issued at 12:02 pm EST Tuesday 31 May 2016 (issued every 30 minutes, with the page automatically refreshed every 10 minutes)

About weather observations | Map of weather stations | Latest weather observations for QLD | Other Formats
Station Details ID: 039066 Name: GAYNDAH AIRPORT Lat: -25.62 Lon: 151.62 Height: 110.9 m
Data from the previous 72 hours. | See also: Recent months at Gayndah
Date/Time
EST
Temp
°C
App
Temp
°C
Dew
Point
Rel
Hum
%
Delta-T
°C
Wind Press
QNH
hPa
Press
MSL
hPa
Rain
since 9 am
mm
Dir
 
Spd
km/h
Gust
km/h
Spd
kts
Gust
kts
31/12:00pm 23.9 20.6 7.9 36 8.5 NE 15 22 8 12 1023.8 1023.5 0.0
31/11:30am 23.1 21.7 8.8 40 7.6 NE 6 15 3 8 1024.6 1024.3 0.0
31/11:00am 22.3 21.0 9.1 43 7.1 N 6 11 3 6 1025.2 1025.0 0.0
31/10:30am 21.2 19.9 9.1 46 6.5 NNE 6 13 3 7 1025.5 1025.3 0.0
31/10:00am 19.7 19.4 8.7 49 5.7 CALM 0 4 0 2 1026.1 1025.9 0.0
31/09:30am 17.2 16.4 8.1 55 4.7 SSW 2 4 1 2 1026.2 1026.0 0.0
31/09:00am 14.5 13.1 7.3 62 3.5 W 4 7 2 4 1026.1 1025.9 0.0
31/08:30am 12.1 10.0 5.9 66 2.9 W 6 7 3 4 1026.1 1025.9 0.0
31/08:00am 10.3 8.3 6.3 76 1.9 WSW 6 7 3 4 1026.0 1025.8 0.0
31/07:30am 7.9 6.8 5.0 82 1.3 CALM 0 6 0 3 1025.7 1025.5 0.0
31/07:00am 6.3 4.9 3.6 83 1.1 CALM 0 0 0 0 1025.0 1024.8 0.0
31/06:30am 7.2 5.7 5.2 87 0.9 S 2 2 1 1 1025.0 1024.8 0.0
31/06:00am 5.9 3.7 3.6 85 1.0 SW 4 6 2 3 1024.9 1024.6 0.0
31/05:30am 6.0 4.3 3.8 86 0.9 SW 2 6 1 3 1024.6 1024.3 0.0
31/05:00am 6.0 4.7 4.2 88 0.8 CALM 0 0 0 0 1023.9 1023.6 0.0
31/04:30am 5.5 4.0 3.2 85 1.0 CALM 0 0 0 0 1023.7 1023.4 0.0
31/04:00am 5.9 4.5 3.4 84 1.0 CALM 0 0 0 0 1023.5 1023.3 0.0
31/03:30am 6.3 4.5 3.5 82 1.2 WSW 2 4 1 2 1023.8 1023.5 0.0
31/03:00am 6.0 4.5 2.8 80 1.3 CALM 0 0 0 0 1023.4 1023.2 0.0
31/02:30am 6.8 5.3 2.9 76 1.6 CALM 0 0 0 0 1023.5 1023.3 0.0
31/02:00am 6.9 5.3 2.4 73 1.9 CALM 0 0 0 0 1023.5 1023.3 0.0
31/01:30am 6.8 5.2 2.3 73 1.9 CALM 0 0 0 0 1023.7 1023.4 0.0
31/01:00am 7.8 5.7 1.9 66 2.4 S 2 4 1 2 1023.9 1023.6 0.0
31/12:30am 8.1 6.3 1.3 62 2.8 CALM 0 0 0 0 1024.0 1023.7 0.0
31/12:00am 8.1 5.7 1.9 65 2.6 S 4 9 2 5 1024.0 1023.7 0.0
 
Date/Time
EST
Temp
°C
App
Temp
°C
Dew
Point
Rel
Hum
%
Delta-T
°C
Wind Press
QNH
hPa
Press
MSL
hPa
Rain
since 9 am
mm
Dir
 
Spd
km/h
Gust
km/h
Spd
kts
Gust
kts
30/11:30pm 8.4 6.9 3.1 69 2.3 CALM 0 0 0 0 1024.1 1023.8 0.0
30/11:00pm 8.7 6.7 2.3 64 2.7 SSW 2 4 1 2 1024.2 1023.9 0.0
30/10:30pm 8.4 6.6 1.3 61 2.9 CALM 0 0 0 0 1024.2 1023.9 0.0
30/10:00pm 9.5 6.9 0.7 54 3.6 WSW 4 6 2 3 1024.1 1023.8 0.0
30/09:30pm 10.3 7.6 0.1 49 4.1 WSW 4 7 2 4 1024.2 1023.9 0.0
30/09:00pm 9.0 6.6 -0.3 52 3.7 NNE 2 6 1 3 1023.7 1023.4 0.0
30/08:30pm 10.7 8.7 0.2 48 4.3 CALM 0 4 0 2 1023.3 1023.1 0.0
30/08:00pm 11.4 8.6 -0.1 45 4.7 SE 4 6 2 3 1023.0 1022.8 0.0
30/07:30pm 13.1 10.3 1.8 46 4.9 SSW 6 6 3 3 1022.7 1022.5 0.0
30/07:00pm 13.9 11.5 -0.2 38 5.9 S 2 6 1 3 1022.6 1022.4 0.0
30/06:30pm 14.5 12.6 0.7 39 5.9 CALM 0 0 0 0 1022.3 1022.1 0.0
30/06:00pm 16.1 14.0 -0.6 32 7.0 CALM 0 0 0 0 1021.8 1021.6 0.0
30/05:30pm 18.9 16.4 -1.0 26 8.6 W 2 4 1 2 1021.5 1021.3 0.0
30/05:00pm 22.0 18.9 -0.1 23 9.9 W 6 7 3 4 1021.2 1021.0 0.0
30/04:30pm 23.4 19.9 -1.5 19 11.1 WNW 7 11 4 6 1021.0 1020.8 0.0
30/04:00pm 23.8 20.3 -2.7 17 11.5 SW 6 13 3 7 1020.8 1020.6 0.0
30/03:30pm 24.1 20.1 -2.4 17 11.6 WSW 9 13 5 7 1020.6 1020.4 0.0
30/03:00pm 24.5 20.9 -2.1 17 11.7 NW 7 13 4 7 1020.5 1020.3 0.0
30/02:30pm 23.4 20.1 -1.5 19 11.1 SW 6 11 3 6 1020.5 1020.3 0.0
30/02:00pm 23.6 20.5 0.0 21 10.8 NW 6 13 3 7 1020.7 1020.5 0.0
30/01:30pm 23.0 19.9 1.4 24 10.1 WNW 7 11 4 6 1020.9 1020.7 0.0
30/01:00pm 22.7 18.9 1.7 25 9.8 WNW 11 17 6 9 1021.3 1021.1 0.0
30/12:30pm 21.8 18.6 0.9 25 9.6 WNW 7 17 4 9 1021.8 1021.6 0.0
30/12:00pm 21.1 17.9 0.9 26 9.2 W 7 15 4 8 1022.2 1022.0 0.0
30/11:30am 20.5 17.5 0.9 27 8.9 NW 6 11 3 6 1022.9 1022.7 0.0
30/11:00am 19.6 16.9 2.9 33 7.8 W 6 11 3 6 1023.5 1023.3 0.0
30/10:30am 18.1 15.3 3.2 37 6.9 WSW 7 13 4 7 1024.1 1023.8 0.0
30/10:00am 16.5 13.9 4.2 44 5.8 W 7 9 4 5 1024.2 1023.9 0.0
30/09:30am 15.5 12.2 4.3 47 5.2 W 11 15 6 8 1024.3 1024.0 0.0
30/09:00am 13.1 9.6 3.7 53 4.2 W 11 15 6 8 1024.2 1023.9 -
30/08:30am 11.4 7.9 3.4 58 3.5 WSW 11 17 6 9 1024.1 1023.8 -
30/08:00am 9.2 6.7 4.0 70 2.3 SSW 6 9 3 5 1023.8 1023.5 -
30/07:30am 6.0 4.5 2.8 80 1.3 CALM 0 0 0 0 1023.9 1023.6 -
30/07:00am 4.1 2.4 1.8 85 0.9 CALM 0 2 0 1 1023.3 1023.1 -
30/06:30am 3.7 1.3 1.9 88 0.7 SW 4 6 2 3 1022.8 1022.6 -
30/06:00am 3.5 1.4 1.4 86 0.8 SSW 2 4 1 2 1022.3 1022.1 -
30/05:30am 4.1 2.4 2.1 87 0.8 CALM 0 2 0 1 1022.1 1021.9 -
30/05:00am 4.6 1.6 2.3 85 0.9 WSW 7 9 4 5 1021.6 1021.4 -
30/04:30am 5.2 3.0 3.1 86 0.9 SW 4 6 2 3 1021.4 1021.2 -
30/04:00am 4.4 2.7 2.1 85 0.9 CALM 0 2 0 1 1021.2 1021.0 -
30/03:30am 4.9 2.5 2.3 83 1.1 W 4 6 2 3 1021.3 1021.1 -
30/03:00am 5.4 3.9 3.1 85 1.0 CALM 0 4 0 2 1021.1 1020.9 -
30/02:30am 5.2 2.8 2.4 82 1.1 NNE 4 6 2 3 1020.9 1020.7 -
30/02:00am 6.3 4.9 3.3 81 1.3 CALM 0 0 0 0 1020.8 1020.6 -
30/01:30am 6.6 4.9 2.1 73 1.8 CALM 0 4 0 2 1020.8 1020.6 -
30/01:00am 7.5 5.9 2.6 71 2.0 CALM 0 2 0 1 1020.9 1020.7 -
30/12:30am 7.7 5.3 2.2 68 2.3 NE 4 6 2 3 1021.0 1020.8 -
30/12:00am 8.1 6.7 3.4 72 2.0 CALM 0 4 0 2 1020.8 1020.6 -
 
Date/Time
EST
Temp
°C
App
Temp
°C
Dew
Point
Rel
Hum
%
Delta-T
°C
Wind Press
QNH
hPa
Press
MSL
hPa
Rain
since 9 am
mm
Dir
 
Spd
km/h
Gust
km/h
Spd
kts
Gust
kts
29/11:30pm 9.7 8.4 4.3 69 2.4 CALM 0 6 0 3 1021.0 1020.8 -
29/11:00pm 9.3 7.9 3.3 66 2.6 CALM 0 0 0 0 1021.1 1020.9 0.0
29/10:30pm 9.4 7.1 2.9 64 2.8 W 4 7 2 4 1021.1 1020.9 0.0
29/10:00pm 11.2 8.0 3.0 57 3.6 WSW 9 9 5 5 1021.2 1021.0 0.0
29/09:30pm 12.6 9.7 2.7 51 4.4 W 7 9 4 5 1021.3 1021.1 0.0
29/09:00pm 11.6 8.8 2.1 52 4.1 W 6 7 3 4 1021.1 1020.9 0.0
29/08:30pm 11.5 9.7 1.5 50 4.2 CALM 0 2 0 1 1020.9 1020.7 0.0
29/08:00pm 12.4 10.6 1.4 47 4.7 CALM 0 0 0 0 1020.7 1020.5 0.0
29/07:30pm 12.4 10.6 1.1 46 4.8 CALM 0 0 0 0 1020.3 1020.1 0.0
29/07:00pm 13.8 11.9 0.8 41 5.5 CALM 0 0 0 0 1019.9 1019.7 0.0
29/06:30pm 16.2 13.7 1.5 37 6.5 SW 4 6 2 3 1019.6 1019.4 0.0
29/06:00pm 16.4 14.6 1.3 36 6.7 CALM 0 2 0 1 1019.1 1018.9 0.0
29/05:30pm 18.0 15.8 1.1 32 7.5 SSW 2 4 1 2 1018.7 1018.5 0.0
29/05:00pm 19.1 15.5 0.7 29 8.2 SSW 9 13 5 7 1018.6 1018.4 0.0
29/04:30pm 20.1 16.1 0.5 27 8.8 SW 11 19 6 10 1018.4 1018.2 0.0
29/04:00pm 20.5 16.0 -0.2 25 9.2 SW 13 19 7 10 1018.2 1018.0 0.0
29/03:30pm 21.2 16.4 0.4 25 9.4 SSW 15 22 8 12 1017.8 1017.6 0.0
29/03:00pm 21.5 17.2 0.7 25 9.5 WSW 13 17 7 9 1017.6 1017.4 0.0
29/02:30pm 22.1 18.1 0.6 24 9.8 SW 11 20 6 11 1017.6 1017.4 0.0
29/02:00pm 21.6 17.6 0.2 24 9.7 SSW 11 22 6 12 1017.7 1017.5 0.0
29/01:30pm 21.5 17.7 1.7 27 9.2 SW 11 19 6 10 1017.6 1017.4 0.0
29/01:00pm 20.4 16.5 1.3 28 8.7 SSW 11 19 6 10 1017.7 1017.5 0.0
29/12:30pm 20.4 16.7 2.3 30 8.4 S 11 17 6 9 1018.2 1018.0 0.0
29/12:00pm 19.7 15.0 1.2 29 8.4 SSW 15 22 8 12 1018.9 1018.7 0.0
29/11:30am 20.5 16.5 2.8 31 8.3 SSW 13 20 7 11 1018.8 1018.6 0.0
29/11:00am 19.1 14.7 2.5 33 7.7 SSW 15 24 8 13 1019.2 1019.0 0.0
29/10:30am 18.4 13.1 3.1 36 7.1 SSW 20 32 11 17 1019.9 1019.7 0.0
29/10:00am 17.2 12.4 2.8 38 6.6 SSW 17 26 9 14 1020.4 1020.2 0.0
29/09:30am 16.7 13.3 4.1 43 5.9 SSW 11 17 6 9 1020.3 1020.1 0.0
29/09:00am 14.7 10.8 3.5 47 5.1 SW 13 22 7 12 1020.6 1020.4 -
29/08:30am 13.6 9.7 3.4 50 4.6 WSW 13 19 7 10 1020.1 1019.9 -
29/08:00am 12.1 8.9 2.8 53 4.1 WSW 9 13 5 7 1020.0 1019.8 -
29/07:30am 10.5 7.8 2.4 57 3.5 WSW 6 9 3 5 1019.7 1019.5 -
29/07:00am 9.1 5.7 2.0 61 3.0 SW 9 11 5 6 1019.4 1019.2 -
29/06:30am 9.6 5.8 1.8 58 3.3 WSW 11 15 6 8 1019.1 1018.9 -
29/06:00am 9.8 6.8 1.7 57 3.4 WSW 7 9 4 5 1018.6 1018.4 -
29/05:30am 10.5 7.5 1.9 55 3.7 SW 7 11 4 6 1018.1 1017.9 0.0
29/05:00am 11.7 7.5 1.9 51 4.2 WSW 13 20 7 11 1017.8 1017.6 0.0
29/04:30am 11.5 6.9 1.7 51 4.2 WSW 15 19 8 10 1017.5 1017.3 0.0
29/04:00am 12.0 7.8 1.9 50 4.3 W 13 17 7 9 1017.4 1017.2 0.0
29/03:30am 12.2 8.4 1.8 49 4.5 W 11 15 6 8 1017.4 1017.2 0.0
29/03:00am 12.7 8.5 1.7 47 4.7 W 13 17 7 9 1017.1 1016.8 0.0
29/02:30am 12.6 9.5 1.3 46 4.8 W 7 17 4 9 1016.9 1016.6 0.0
29/02:00am 13.4 10.0 1.7 45 5.1 WSW 9 15 5 8 1016.8 1016.5 0.0
29/01:30am 13.4 9.9 1.4 44 5.2 WSW 9 15 5 8 1016.7 1016.4 0.0
29/01:00am 13.3 9.6 2.2 47 4.9 W 11 15 6 8 1016.9 1016.6 0.0
29/12:30am 13.1 9.1 2.6 49 4.6 W 13 17 7 9 1016.8 1016.5 0.0
29/12:00am 12.8 9.6 2.9 51 4.4 W 9 13 5 7 1016.9 1016.6 0.0
 
Date/Time
EST
Temp
°C
App
Temp
°C
Dew
Point
Rel
Hum
%
Delta-T
°C
Wind Press
QNH
hPa
Press
MSL
hPa
Rain
since 9 am
mm
Dir
 
Spd
km/h
Gust
km/h
Spd
kts
Gust
kts
28/11:30pm 13.1 10.3 3.2 51 4.4 WSW 7 9 4 5 1017.1 1016.8 0.0
28/11:00pm 12.9 10.5 5.3 60 3.5 W 7 9 4 5 1017.2 1016.9 0.0
28/10:30pm 12.3 10.0 5.9 65 3.0 W 7 7 4 4 1017.2 1016.9 0.0
28/10:00pm 14.9 12.1 3.1 45 5.3 W 7 7 4 4 1017.1 1016.8 0.0
28/09:30pm 15.1 12.2 2.6 43 5.6 W 7 9 4 5 1016.9 1016.6 0.0
28/09:00pm 15.7 13.0 2.8 42 5.8 W 6 6 3 3 1016.7 1016.4 0.0
28/08:30pm 16.6 13.7 2.6 39 6.4 W 7 9 4 5 1016.5 1016.2 0.0
28/08:00pm 16.1 13.4 2.5 40 6.1 WSW 6 6 3 3 1016.2 1015.9 0.0
28/07:30pm 16.2 14.1 1.9 38 6.4 WSW 2 6 1 3 1015.9 1015.6 0.0
28/07:00pm 17.6 15.1 1.6 34 7.2 WSW 4 7 2 4 1015.5 1015.2 0.0
28/06:30pm 18.8 16.4 2.2 33 7.6 W 4 7 2 4 1015.0 1014.7 0.0
28/06:00pm 20.1 16.7 2.0 30 8.4 WSW 9 15 5 8 1014.6 1014.3 0.0
28/05:30pm 21.2 17.3 3.4 31 8.5 WSW 13 22 7 12 1014.0 1013.8 0.0
28/05:00pm 22.2 17.5 3.3 29 9.1 W 17 26 9 14 1013.3 1013.1 0.0
28/04:30pm 23.1 18.8 3.1 27 9.7 WSW 15 26 8 14 1012.9 1012.7 0.0
28/04:00pm 23.6 18.6 3.5 27 9.8 WSW 19 32 10 17 1012.5 1012.3 0.0
28/03:30pm 24.0 18.8 3.3 26 10.1 W 20 33 11 18 1012.2 1012.0 0.0
28/03:00pm 23.9 18.9 3.8 27 9.9 WNW 19 28 10 15 1012.2 1012.0 0.0
28/02:30pm 23.8 18.7 4.2 28 9.7 W 20 32 11 17 1012.1 1011.9 0.0
28/02:00pm 23.6 18.8 4.5 29 9.5 W 19 30 10 16 1012.1 1011.9 0.0
28/01:30pm 23.9 19.8 4.3 28 9.7 W 15 24 8 13 1012.3 1012.1 0.0
28/01:00pm 23.1 18.8 5.1 31 9.0 WNW 17 24 9 13 1012.4 1012.2 0.0
28/12:30pm 22.6 18.3 5.1 32 8.8 W 17 24 9 13 1013.0 1012.8 0.0

Other Formats:

Comma delimited format used in spreadsheet applications
http://www.bom.gov.au/fwo/IDQ60801/IDQ60801.95543.axf

JavaScript Object Notation format (JSON) in row-major order
http://www.bom.gov.au/fwo/IDQ60801/IDQ60801.95543.json